sensor_id;sensor_type;location;lat;lon;timestamp;P1;durP1;ratioP1;P2;durP2;ratioP2
40629;SDS011;26329;40.388;-3.710;2024-01-30T00:07:25;28.02;;;13.13;;
40629;SDS011;26329;40.388;-3.710;2024-01-30T00:17:26;27.27;;;13.65;;
40629;SDS011;26329;40.388;-3.710;2024-01-30T00:27:27;25.23;;;12.90;;
40629;SDS011;26329;40.388;-3.710;2024-01-30T00:37:28;22.25;;;12.80;;
40629;SDS011;26329;40.388;-3.710;2024-01-30T00:47:29;25.45;;;11.80;;
40629;SDS011;26329;40.388;-3.710;2024-01-30T00:57:30;26.05;;;13.13;;
40629;SDS011;26329;40.388;-3.710;2024-01-30T01:07:31;18.98;;;11.90;;
40629;SDS011;26329;40.388;-3.710;2024-01-30T01:17:32;19.10;;;11.52;;
40629;SDS011;26329;40.388;-3.710;2024-01-30T01:27:33;17.63;;;11.30;;
40629;SDS011;26329;40.388;-3.710;2024-01-30T01:37:38;23.13;;;12.10;;
40629;SDS011;26329;40.388;-3.710;2024-01-30T01:47:39;19.83;;;12.25;;
40629;SDS011;26329;40.388;-3.710;2024-01-30T01:57:41;22.95;;;12.60;;
40629;SDS011;26329;40.388;-3.710;2024-01-30T02:07:42;17.02;;;9.70;;
40629;SDS011;26329;40.388;-3.710;2024-01-30T02:17:44;20.48;;;7.53;;
40629;SDS011;26329;40.388;-3.710;2024-01-30T02:27:45;17.40;;;6.93;;
40629;SDS011;26329;40.388;-3.710;2024-01-30T02:37:46;18.23;;;7.70;;
40629;SDS011;26329;40.388;-3.710;2024-01-30T02:47:47;16.63;;;7.03;;
40629;SDS011;26329;40.388;-3.710;2024-01-30T02:57:50;12.52;;;6.70;;
40629;SDS011;26329;40.388;-3.710;2024-01-30T03:07:51;14.02;;;7.43;;
40629;SDS011;26329;40.388;-3.710;2024-01-30T03:17:53;15.25;;;8.40;;
40629;SDS011;26329;40.388;-3.710;2024-01-30T03:27:54;20.40;;;7.90;;
40629;SDS011;26329;40.388;-3.710;2024-01-30T03:37:55;13.38;;;7.20;;
40629;SDS011;26329;40.388;-3.710;2024-01-30T03:47:56;15.32;;;7.38;;
40629;SDS011;26329;40.388;-3.710;2024-01-30T03:57:59;17.33;;;8.35;;
40629;SDS011;26329;40.388;-3.710;2024-01-30T04:07:59;15.25;;;7.68;;
40629;SDS011;26329;40.388;-3.710;2024-01-30T04:18:01;12.65;;;8.05;;
40629;SDS011;26329;40.388;-3.710;2024-01-30T04:28:02;19.73;;;7.82;;
40629;SDS011;26329;40.388;-3.710;2024-01-30T04:38:03;13.55;;;9.02;;
40629;SDS011;26329;40.388;-3.710;2024-01-30T04:48:04;16.15;;;8.73;;
40629;SDS011;26329;40.388;-3.710;2024-01-30T04:58:07;17.23;;;9.20;;
40629;SDS011;26329;40.388;-3.710;2024-01-30T05:08:11;10.80;;;8.27;;
40629;SDS011;26329;40.388;-3.710;2024-01-30T05:18:14;15.73;;;8.75;;
40629;SDS011;26329;40.388;-3.710;2024-01-30T05:28:17;23.50;;;12.65;;
40629;SDS011;26329;40.388;-3.710;2024-01-30T05:38:19;14.82;;;10.27;;
40629;SDS011;26329;40.388;-3.710;2024-01-30T05:48:22;16.90;;;10.73;;
40629;SDS011;26329;40.388;-3.710;2024-01-30T05:58:24;14.52;;;9.73;;
40629;SDS011;26329;40.388;-3.710;2024-01-30T06:08:27;23.77;;;11.00;;
40629;SDS011;26329;40.388;-3.710;2024-01-30T06:18:28;17.33;;;10.68;;
40629;SDS011;26329;40.388;-3.710;2024-01-30T06:28:31;19.10;;;10.88;;
40629;SDS011;26329;40.388;-3.710;2024-01-30T06:38:32;20.30;;;10.50;;
40629;SDS011;26329;40.388;-3.710;2024-01-30T06:48:34;19.63;;;12.27;;
40629;SDS011;26329;40.388;-3.710;2024-01-30T06:58:36;18.10;;;11.35;;
40629;SDS011;26329;40.388;-3.710;2024-01-30T07:08:37;22.05;;;11.88;;
40629;SDS011;26329;40.388;-3.710;2024-01-30T07:18:41;21.42;;;12.25;;
40629;SDS011;26329;40.388;-3.710;2024-01-30T07:28:45;28.10;;;12.63;;
40629;SDS011;26329;40.388;-3.710;2024-01-30T07:38:47;20.30;;;11.85;;
40629;SDS011;26329;40.388;-3.710;2024-01-30T07:48:50;21.70;;;12.02;;
40629;SDS011;26329;40.388;-3.710;2024-01-30T07:58:53;25.50;;;12.93;;
40629;SDS011;26329;40.388;-3.710;2024-01-30T08:08:56;25.73;;;13.82;;
40629;SDS011;26329;40.388;-3.710;2024-01-30T08:19:01;28.58;;;13.77;;
40629;SDS011;26329;40.388;-3.710;2024-01-30T08:29:04;25.97;;;13.80;;
40629;SDS011;26329;40.388;-3.710;2024-01-30T08:39:07;34.58;;;15.13;;
40629;SDS011;26329;40.388;-3.710;2024-01-30T08:49:11;33.10;;;13.90;;
40629;SDS011;26329;40.388;-3.710;2024-01-30T08:59:13;32.45;;;18.85;;
40629;SDS011;26329;40.388;-3.710;2024-01-30T09:09:16;26.77;;;15.30;;
40629;SDS011;26329;40.388;-3.710;2024-01-30T09:19:19;29.73;;;16.17;;
40629;SDS011;26329;40.388;-3.710;2024-01-30T09:29:22;31.40;;;17.73;;
40629;SDS011;26329;40.388;-3.710;2024-01-30T09:39:25;36.20;;;20.48;;
40629;SDS011;26329;40.388;-3.710;2024-01-30T09:49:26;39.60;;;20.98;;
40629;SDS011;26329;40.388;-3.710;2024-01-30T09:59:29;41.53;;;21.60;;
40629;SDS011;26329;40.388;-3.710;2024-01-30T10:09:34;21.20;;;8.32;;
40629;SDS011;26329;40.388;-3.710;2024-01-30T10:19:37;36.65;;;20.73;;
40629;SDS011;26329;40.388;-3.710;2024-01-30T10:29:41;29.33;;;17.23;;
40629;SDS011;26329;40.388;-3.710;2024-01-30T10:39:45;29.23;;;16.93;;
40629;SDS011;26329;40.388;-3.710;2024-01-30T10:49:47;33.63;;;17.85;;
40629;SDS011;26329;40.388;-3.710;2024-01-30T10:59:50;42.13;;;18.07;;
40629;SDS011;26329;40.388;-3.710;2024-01-30T11:09:53;32.00;;;18.00;;
40629;SDS011;26329;40.388;-3.710;2024-01-30T11:19:59;31.33;;;18.35;;
40629;SDS011;26329;40.388;-3.710;2024-01-30T11:30:02;26.92;;;17.38;;
40629;SDS011;26329;40.388;-3.710;2024-01-30T11:40:07;28.67;;;17.15;;
40629;SDS011;26329;40.388;-3.710;2024-01-30T11:50:09;32.75;;;18.27;;
40629;SDS011;26329;40.388;-3.710;2024-01-30T12:00:14;29.88;;;18.98;;
40629;SDS011;26329;40.388;-3.710;2024-01-30T12:10:17;29.67;;;17.90;;
40629;SDS011;26329;40.388;-3.710;2024-01-30T12:30:22;33.50;;;18.88;;
40629;SDS011;26329;40.388;-3.710;2024-01-30T12:40:24;29.92;;;18.60;;
40629;SDS011;26329;40.388;-3.710;2024-01-30T12:50:26;31.55;;;19.13;;
40629;SDS011;26329;40.388;-3.710;2024-01-30T13:00:29;31.45;;;18.02;;
40629;SDS011;26329;40.388;-3.710;2024-01-30T13:10:32;35.70;;;21.03;;
40629;SDS011;26329;40.388;-3.710;2024-01-30T13:20:35;38.97;;;21.85;;
40629;SDS011;26329;40.388;-3.710;2024-01-30T13:30:38;37.23;;;23.13;;
40629;SDS011;26329;40.388;-3.710;2024-01-30T13:40:42;35.22;;;21.27;;
40629;SDS011;26329;40.388;-3.710;2024-01-30T13:50:45;34.67;;;21.90;;
40629;SDS011;26329;40.388;-3.710;2024-01-30T14:00:48;37.00;;;21.27;;
40629;SDS011;26329;40.388;-3.710;2024-01-30T14:10:51;39.72;;;22.35;;
40629;SDS011;26329;40.388;-3.710;2024-01-30T14:20:52;39.50;;;22.13;;
40629;SDS011;26329;40.388;-3.710;2024-01-30T14:30:56;36.15;;;21.83;;
40629;SDS011;26329;40.388;-3.710;2024-01-30T14:40:59;36.90;;;24.10;;
40629;SDS011;26329;40.388;-3.710;2024-01-30T14:51:00;35.67;;;23.08;;
40629;SDS011;26329;40.388;-3.710;2024-01-30T15:01:03;41.63;;;22.53;;
40629;SDS011;26329;40.388;-3.710;2024-01-30T15:11:06;44.23;;;23.07;;
40629;SDS011;26329;40.388;-3.710;2024-01-30T15:21:08;37.20;;;22.30;;
40629;SDS011;26329;40.388;-3.710;2024-01-30T15:31:10;32.67;;;21.73;;
40629;SDS011;26329;40.388;-3.710;2024-01-30T15:41:12;39.60;;;23.70;;
40629;SDS011;26329;40.388;-3.710;2024-01-30T15:51:14;39.75;;;24.55;;
40629;SDS011;26329;40.388;-3.710;2024-01-30T16:01:17;36.93;;;22.47;;
40629;SDS011;26329;40.388;-3.710;2024-01-30T16:11:20;38.67;;;22.57;;
40629;SDS011;26329;40.388;-3.710;2024-01-30T16:21:22;40.27;;;22.80;;
40629;SDS011;26329;40.388;-3.710;2024-01-30T16:31:25;37.20;;;22.03;;
40629;SDS011;26329;40.388;-3.710;2024-01-30T16:41:26;38.35;;;23.20;;
40629;SDS011;26329;40.388;-3.710;2024-01-30T16:51:29;32.57;;;20.13;;
40629;SDS011;26329;40.388;-3.710;2024-01-30T17:01:32;34.60;;;21.13;;
40629;SDS011;26329;40.388;-3.710;2024-01-30T17:11:32;40.17;;;20.42;;
40629;SDS011;26329;40.388;-3.710;2024-01-30T17:21:34;32.58;;;17.52;;
40629;SDS011;26329;40.388;-3.710;2024-01-30T17:31:38;48.70;;;19.38;;
40629;SDS011;26329;40.388;-3.710;2024-01-30T17:41:41;35.47;;;22.47;;
40629;SDS011;26329;40.388;-3.710;2024-01-30T17:51:44;52.83;;;29.90;;
40629;SDS011;26329;40.388;-3.710;2024-01-30T18:11:49;44.97;;;20.85;;
40629;SDS011;26329;40.388;-3.710;2024-01-30T18:21:52;63.10;;;30.33;;
40629;SDS011;26329;40.388;-3.710;2024-01-30T18:31:55;56.17;;;24.80;;
40629;SDS011;26329;40.388;-3.710;2024-01-30T18:41:58;35.73;;;20.80;;
40629;SDS011;26329;40.388;-3.710;2024-01-30T18:52:01;43.00;;;20.42;;
40629;SDS011;26329;40.388;-3.710;2024-01-30T19:02:05;42.80;;;19.88;;
40629;SDS011;26329;40.388;-3.710;2024-01-30T19:12:08;42.03;;;21.97;;
40629;SDS011;26329;40.388;-3.710;2024-01-30T19:22:09;38.22;;;18.38;;
40629;SDS011;26329;40.388;-3.710;2024-01-30T19:32:12;34.10;;;19.15;;
40629;SDS011;26329;40.388;-3.710;2024-01-30T19:42:16;51.25;;;24.42;;
40629;SDS011;26329;40.388;-3.710;2024-01-30T19:52:19;58.03;;;25.20;;
40629;SDS011;26329;40.388;-3.710;2024-01-30T20:02:22;45.38;;;25.52;;
40629;SDS011;26329;40.388;-3.710;2024-01-30T20:12:25;44.87;;;22.47;;
40629;SDS011;26329;40.388;-3.710;2024-01-30T20:22:26;40.60;;;20.35;;
40629;SDS011;26329;40.388;-3.710;2024-01-30T20:32:28;37.53;;;19.98;;
40629;SDS011;26329;40.388;-3.710;2024-01-30T20:42:33;81.40;;;46.35;;
40629;SDS011;26329;40.388;-3.710;2024-01-30T20:52:35;58.70;;;31.80;;
40629;SDS011;26329;40.388;-3.710;2024-01-30T21:02:36;45.55;;;26.40;;
40629;SDS011;26329;40.388;-3.710;2024-01-30T21:12:37;45.50;;;27.42;;
40629;SDS011;26329;40.388;-3.710;2024-01-30T21:22:38;48.60;;;24.50;;
40629;SDS011;26329;40.388;-3.710;2024-01-30T21:32:40;41.85;;;24.48;;
40629;SDS011;26329;40.388;-3.710;2024-01-30T21:42:41;42.85;;;24.35;;
40629;SDS011;26329;40.388;-3.710;2024-01-30T21:52:42;44.15;;;24.17;;
40629;SDS011;26329;40.388;-3.710;2024-01-30T22:02:43;46.80;;;23.67;;
40629;SDS011;26329;40.388;-3.710;2024-01-30T22:12:44;41.20;;;23.40;;
40629;SDS011;26329;40.388;-3.710;2024-01-30T22:22:45;42.80;;;22.65;;
40629;SDS011;26329;40.388;-3.710;2024-01-30T22:32:46;39.47;;;23.83;;
40629;SDS011;26329;40.388;-3.710;2024-01-30T22:42:47;42.03;;;22.05;;
40629;SDS011;26329;40.388;-3.710;2024-01-30T22:52:48;34.28;;;20.83;;
40629;SDS011;26329;40.388;-3.710;2024-01-30T23:02:52;37.95;;;21.60;;
40629;SDS011;26329;40.388;-3.710;2024-01-30T23:12:53;34.42;;;21.55;;
40629;SDS011;26329;40.388;-3.710;2024-01-30T23:22:54;49.85;;;23.40;;
40629;SDS011;26329;40.388;-3.710;2024-01-30T23:32:55;42.80;;;23.77;;
40629;SDS011;26329;40.388;-3.710;2024-01-30T23:42:56;34.38;;;20.15;;
40629;SDS011;26329;40.388;-3.710;2024-01-30T23:52:58;43.47;;;22.95;;
